sensor_id;sensor_type;location;lat;lon;timestamp;temperature;humidity
55151;DHT22;41041;43.162;20.538;2022-07-24T00:00:42;614.60;1715.20
55151;DHT22;41041;43.162;20.538;2022-07-24T00:03:08;614.60;1715.20
55151;DHT22;41041;43.162;20.538;2022-07-24T00:05:34;614.50;1740.80
55151;DHT22;41041;43.162;20.538;2022-07-24T00:07:59;614.50;1740.80
55151;DHT22;41041;43.162;20.538;2022-07-24T00:10:25;614.50;1740.80
55151;DHT22;41041;43.162;20.538;2022-07-24T00:12:51;614.40;1740.80
55151;DHT22;41041;43.162;20.538;2022-07-24T00:15:17;614.40;1740.80
55151;DHT22;41041;43.162;20.538;2022-07-24T00:17:42;614.40;1740.80
55151;DHT22;41041;43.162;20.538;2022-07-24T00:20:09;614.50;1740.80
55151;DHT22;41041;43.162;20.538;2022-07-24T00:22:35;614.40;1740.80
55151;DHT22;41041;43.162;20.538;2022-07-24T00:25:01;589.70;1766.40
55151;DHT22;41041;43.162;20.538;2022-07-24T00:27:26;589.70;1766.40
55151;DHT22;41041;43.162;20.538;2022-07-24T00:29:52;614.40;1766.40
55151;DHT22;41041;43.162;20.538;2022-07-24T00:32:17;589.70;1766.40
55151;DHT22;41041;43.162;20.538;2022-07-24T00:34:43;589.70;1766.40
55151;DHT22;41041;43.162;20.538;2022-07-24T00:37:18;589.70;1766.40
55151;DHT22;41041;43.162;20.538;2022-07-24T00:39:44;589.70;1792.00
55151;DHT22;41041;43.162;20.538;2022-07-24T00:42:10;589.60;1792.00
55151;DHT22;41041;43.162;20.538;2022-07-24T00:44:36;589.60;1792.00
55151;DHT22;41041;43.162;20.538;2022-07-24T00:47:02;589.50;1817.60
55151;DHT22;41041;43.162;20.538;2022-07-24T00:52:31;589.40;1817.60
55151;DHT22;41041;43.162;20.538;2022-07-24T00:54:56;589.50;1817.60
55151;DHT22;41041;43.162;20.538;2022-07-24T00:57:22;589.40;1817.60
55151;DHT22;41041;43.162;20.538;2022-07-24T00:59:48;589.40;1817.60
55151;DHT22;41041;43.162;20.538;2022-07-24T01:02:13;589.30;1817.60
55151;DHT22;41041;43.162;20.538;2022-07-24T01:04:39;589.40;1792.00
55151;DHT22;41041;43.162;20.538;2022-07-24T01:07:05;589.40;1817.60
55151;DHT22;41041;43.162;20.538;2022-07-24T01:09:30;589.30;1817.60
55151;DHT22;41041;43.162;20.538;2022-07-24T01:11:57;589.30;1792.00
55151;DHT22;41041;43.162;20.538;2022-07-24T01:14:23;589.30;1817.60
55151;DHT22;41041;43.162;20.538;2022-07-24T01:16:49;589.20;1817.60
55151;DHT22;41041;43.162;20.538;2022-07-24T01:22:05;589.20;1817.60
55151;DHT22;41041;43.162;20.538;2022-07-24T01:24:30;589.10;1817.60
55151;DHT22;41041;43.162;20.538;2022-07-24T01:26:56;589.10;1843.20
55151;DHT22;41041;43.162;20.538;2022-07-24T01:29:22;589.00;1843.20
55151;DHT22;41041;43.162;20.538;2022-07-24T01:31:47;589.10;1843.20
55151;DHT22;41041;43.162;20.538;2022-07-24T01:34:16;589.00;1843.20
55151;DHT22;41041;43.162;20.538;2022-07-24T01:36:41;589.00;1843.20
55151;DHT22;41041;43.162;20.538;2022-07-24T01:39:07;589.00;1868.80
55151;DHT22;41041;43.162;20.538;2022-07-24T01:41:33;588.90;1894.40
55151;DHT22;41041;43.162;20.538;2022-07-24T01:43:59;588.90;1894.40
55151;DHT22;41041;43.162;20.538;2022-07-24T01:46:25;564.10;1920.00
55151;DHT22;41041;43.162;20.538;2022-07-24T01:48:52;588.80;1920.00
55151;DHT22;41041;43.162;20.538;2022-07-24T01:51:18;588.80;1920.00
55151;DHT22;41041;43.162;20.538;2022-07-24T01:56:37;564.10;1920.00
55151;DHT22;41041;43.162;20.538;2022-07-24T01:59:05;564.10;1920.00
55151;DHT22;41041;43.162;20.538;2022-07-24T02:01:31;588.80;1920.00
55151;DHT22;41041;43.162;20.538;2022-07-24T02:03:57;588.80;1894.40
55151;DHT22;41041;43.162;20.538;2022-07-24T02:06:22;588.80;1894.40
55151;DHT22;41041;43.162;20.538;2022-07-24T02:08:48;588.80;1894.40
55151;DHT22;41041;43.162;20.538;2022-07-24T02:11:13;564.10;1894.40
55151;DHT22;41041;43.162;20.538;2022-07-24T02:13:39;564.00;1945.60
55151;DHT22;41041;43.162;20.538;2022-07-24T02:16:05;563.90;1971.20
55151;DHT22;41041;43.162;20.538;2022-07-24T02:18:30;563.90;1971.20
55151;DHT22;41041;43.162;20.538;2022-07-24T02:20:56;563.90;1971.20
55151;DHT22;41041;43.162;20.538;2022-07-24T02:23:22;563.80;1971.20
55151;DHT22;41041;43.162;20.538;2022-07-24T02:25:48;563.80;1971.20
55151;DHT22;41041;43.162;20.538;2022-07-24T02:28:14;563.70;1971.20
55151;DHT22;41041;43.162;20.538;2022-07-24T02:30:40;563.80;1971.20
55151;DHT22;41041;43.162;20.538;2022-07-24T02:33:05;563.80;1971.20
55151;DHT22;41041;43.162;20.538;2022-07-24T02:38:23;563.70;1996.80
55151;DHT22;41041;43.162;20.538;2022-07-24T02:40:49;563.80;1996.80
55151;DHT22;41041;43.162;20.538;2022-07-24T02:43:15;563.90;1971.20
55151;DHT22;41041;43.162;20.538;2022-07-24T02:45:40;563.90;1971.20
55151;DHT22;41041;43.162;20.538;2022-07-24T02:48:06;563.80;1971.20
55151;DHT22;41041;43.162;20.538;2022-07-24T02:53:28;563.80;1996.80
55151;DHT22;41041;43.162;20.538;2022-07-24T02:55:54;563.70;1971.20
55151;DHT22;41041;43.162;20.538;2022-07-24T02:58:20;563.70;1971.20
55151;DHT22;41041;43.162;20.538;2022-07-24T03:00:45;563.70;1945.60
55151;DHT22;41041;43.162;20.538;2022-07-24T03:03:11;563.70;1971.20
55151;DHT22;41041;43.162;20.538;2022-07-24T03:05:36;563.70;1971.20
55151;DHT22;41041;43.162;20.538;2022-07-24T03:08:02;563.60;1971.20
55151;DHT22;41041;43.162;20.538;2022-07-24T03:10:28;563.60;1996.80
55151;DHT22;41041;43.162;20.538;2022-07-24T03:12:53;563.60;1996.80
55151;DHT22;41041;43.162;20.538;2022-07-24T03:15:19;563.50;1996.80
55151;DHT22;41041;43.162;20.538;2022-07-24T03:17:51;563.50;1996.80
55151;DHT22;41041;43.162;20.538;2022-07-24T03:20:17;563.50;1996.80
55151;DHT22;41041;43.162;20.538;2022-07-24T03:22:43;563.50;1996.80
55151;DHT22;41041;43.162;20.538;2022-07-24T03:25:09;563.50;1996.80
55151;DHT22;41041;43.162;20.538;2022-07-24T03:27:35;563.50;1971.20
55151;DHT22;41041;43.162;20.538;2022-07-24T03:30:00;563.50;1996.80
55151;DHT22;41041;43.162;20.538;2022-07-24T03:32:26;563.50;1996.80
55151;DHT22;41041;43.162;20.538;2022-07-24T03:35:03;563.50;1996.80
55151;DHT22;41041;43.162;20.538;2022-07-24T03:37:29;563.50;1996.80
55151;DHT22;41041;43.162;20.538;2022-07-24T03:39:55;563.50;1996.80
55151;DHT22;41041;43.162;20.538;2022-07-24T03:42:21;563.50;1996.80
55151;DHT22;41041;43.162;20.538;2022-07-24T03:44:46;563.50;1996.80
55151;DHT22;41041;43.162;20.538;2022-07-24T03:47:12;563.50;1996.80
55151;DHT22;41041;43.162;20.538;2022-07-24T03:49:38;563.50;1996.80
55151;DHT22;41041;43.162;20.538;2022-07-24T03:52:18;563.40;2022.40
55151;DHT22;41041;43.162;20.538;2022-07-24T03:54:43;563.40;2022.40
55151;DHT22;41041;43.162;20.538;2022-07-24T03:57:09;563.40;2022.40
55151;DHT22;41041;43.162;20.538;2022-07-24T03:59:42;563.40;2022.40
55151;DHT22;41041;43.162;20.538;2022-07-24T04:02:07;563.40;2022.40
55151;DHT22;41041;43.162;20.538;2022-07-24T04:04:33;563.30;2048.00
55151;DHT22;41041;43.162;20.538;2022-07-24T04:06:58;563.30;2022.40
55151;DHT22;41041;43.162;20.538;2022-07-24T04:09:24;563.40;2022.40
55151;DHT22;41041;43.162;20.538;2022-07-24T04:11:50;563.30;2022.40
55151;DHT22;41041;43.162;20.538;2022-07-24T04:14:15;563.40;2022.40
55151;DHT22;41041;43.162;20.538;2022-07-24T04:16:41;563.30;2048.00
55151;DHT22;41041;43.162;20.538;2022-07-24T04:19:08;563.30;2073.60
55151;DHT22;41041;43.162;20.538;2022-07-24T04:21:33;563.40;2048.00
55151;DHT22;41041;43.162;20.538;2022-07-24T04:23:59;563.40;2048.00
55151;DHT22;41041;43.162;20.538;2022-07-24T04:26:25;563.40;2048.00
55151;DHT22;41041;43.162;20.538;2022-07-24T04:28:51;563.40;2048.00
55151;DHT22;41041;43.162;20.538;2022-07-24T04:31:17;563.40;2048.00
55151;DHT22;41041;43.162;20.538;2022-07-24T04:33:43;563.40;2048.00
55151;DHT22;41041;43.162;20.538;2022-07-24T04:36:09;563.40;2048.00
55151;DHT22;41041;43.162;20.538;2022-07-24T04:38:34;563.40;2048.00
55151;DHT22;41041;43.162;20.538;2022-07-24T04:41:00;563.40;2048.00
55151;DHT22;41041;43.162;20.538;2022-07-24T04:43:26;563.40;2048.00
55151;DHT22;41041;43.162;20.538;2022-07-24T04:45:51;563.50;2048.00
55151;DHT22;41041;43.162;20.538;2022-07-24T04:48:17;563.50;2048.00
55151;DHT22;41041;43.162;20.538;2022-07-24T04:50:43;563.60;2073.60
55151;DHT22;41041;43.162;20.538;2022-07-24T04:53:08;563.60;2073.60
55151;DHT22;41041;43.162;20.538;2022-07-24T04:55:34;563.70;2073.60
55151;DHT22;41041;43.162;20.538;2022-07-24T04:57:59;563.90;2073.60
55151;DHT22;41041;43.162;20.538;2022-07-24T05:00:25;563.70;2099.20
55151;DHT22;41041;43.162;20.538;2022-07-24T05:02:51;563.80;2099.20
55151;DHT22;41041;43.162;20.538;2022-07-24T05:05:16;563.80;2099.20
55151;DHT22;41041;43.162;20.538;2022-07-24T05:07:42;563.80;2099.20
55151;DHT22;41041;43.162;20.538;2022-07-24T05:10:07;563.90;2073.60
55151;DHT22;41041;43.162;20.538;2022-07-24T05:12:33;563.90;2073.60
55151;DHT22;41041;43.162;20.538;2022-07-24T05:14:59;564.00;2073.60
55151;DHT22;41041;43.162;20.538;2022-07-24T05:17:24;564.00;2099.20
55151;DHT22;41041;43.162;20.538;2022-07-24T05:19:50;564.00;2073.60
55151;DHT22;41041;43.162;20.538;2022-07-24T05:22:16;564.10;2073.60
55151;DHT22;41041;43.162;20.538;2022-07-24T05:24:41;588.80;2048.00
55151;DHT22;41041;43.162;20.538;2022-07-24T05:27:07;588.90;2048.00
55151;DHT22;41041;43.162;20.538;2022-07-24T05:29:32;588.90;2048.00
55151;DHT22;41041;43.162;20.538;2022-07-24T05:31:58;588.90;2022.40
55151;DHT22;41041;43.162;20.538;2022-07-24T05:34:24;588.90;2022.40
55151;DHT22;41041;43.162;20.538;2022-07-24T05:36:49;589.00;2022.40
55151;DHT22;41041;43.162;20.538;2022-07-24T05:39:15;589.10;2022.40
55151;DHT22;41041;43.162;20.538;2022-07-24T05:41:41;589.00;2022.40
55151;DHT22;41041;43.162;20.538;2022-07-24T05:44:07;589.10;2022.40
55151;DHT22;41041;43.162;20.538;2022-07-24T05:46:32;589.20;2048.00
55151;DHT22;41041;43.162;20.538;2022-07-24T05:48:58;589.20;2048.00
55151;DHT22;41041;43.162;20.538;2022-07-24T05:51:23;589.40;2073.60
55151;DHT22;41041;43.162;20.538;2022-07-24T05:53:50;589.30;2048.00
55151;DHT22;41041;43.162;20.538;2022-07-24T05:56:16;589.40;2022.40
55151;DHT22;41041;43.162;20.538;2022-07-24T05:58:42;589.50;1996.80
55151;DHT22;41041;43.162;20.538;2022-07-24T06:01:10;589.60;1996.80
55151;DHT22;41041;43.162;20.538;2022-07-24T06:03:35;589.60;2022.40
55151;DHT22;41041;43.162;20.538;2022-07-24T06:06:03;589.60;2022.40
55151;DHT22;41041;43.162;20.538;2022-07-24T06:11:14;589.60;2022.40
55151;DHT22;41041;43.162;20.538;2022-07-24T06:13:40;614.60;1971.20
55151;DHT22;41041;43.162;20.538;2022-07-24T06:16:05;614.50;1971.20
55151;DHT22;41041;43.162;20.538;2022-07-24T06:18:31;614.50;1945.60
55151;DHT22;41041;43.162;20.538;2022-07-24T06:23:33;614.40;1945.60
55151;DHT22;41041;43.162;20.538;2022-07-24T06:25:59;589.70;1920.00
55151;DHT22;41041;43.162;20.538;2022-07-24T06:28:25;614.40;1920.00
55151;DHT22;41041;43.162;20.538;2022-07-24T06:30:50;614.60;1894.40
55151;DHT22;41041;43.162;20.538;2022-07-24T06:33:16;614.60;1868.80
55151;DHT22;41041;43.162;20.538;2022-07-24T06:35:42;614.70;1894.40
55151;DHT22;41041;43.162;20.538;2022-07-24T06:38:07;614.70;1894.40
55151;DHT22;41041;43.162;20.538;2022-07-24T06:40:35;614.70;1894.40
55151;DHT22;41041;43.162;20.538;2022-07-24T06:43:11;614.80;1920.00
55151;DHT22;41041;43.162;20.538;2022-07-24T06:45:37;614.70;1945.60
55151;DHT22;41041;43.162;20.538;2022-07-24T06:48:03;614.80;1920.00
55151;DHT22;41041;43.162;20.538;2022-07-24T06:50:29;614.90;1945.60
55151;DHT22;41041;43.162;20.538;2022-07-24T06:52:54;615.00;1945.60
55151;DHT22;41041;43.162;20.538;2022-07-24T06:55:20;615.10;1920.00
55151;DHT22;41041;43.162;20.538;2022-07-24T06:57:46;615.20;1920.00
55151;DHT22;41041;43.162;20.538;2022-07-24T07:05:41;640.50;1868.80
55151;DHT22;41041;43.162;20.538;2022-07-24T07:13:35;640.80;1843.20
55151;DHT22;41041;43.162;20.538;2022-07-24T07:16:01;640.60;1817.60
55151;DHT22;41041;43.162;20.538;2022-07-24T07:18:27;640.70;1817.60
55151;DHT22;41041;43.162;20.538;2022-07-24T07:23:56;665.60;1766.40
55151;DHT22;41041;43.162;20.538;2022-07-24T07:26:21;665.80;1792.00
55151;DHT22;41041;43.162;20.538;2022-07-24T07:28:47;665.80;1766.40
55151;DHT22;41041;43.162;20.538;2022-07-24T07:31:13;666.00;1740.80
55151;DHT22;41041;43.162;20.538;2022-07-24T07:33:38;666.10;1740.80
55151;DHT22;41041;43.162;20.538;2022-07-24T07:39:07;666.50;1715.20
55151;DHT22;41041;43.162;20.538;2022-07-24T07:41:33;666.40;1715.20
55151;DHT22;41041;43.162;20.538;2022-07-24T07:43:59;666.50;1740.80
55151;DHT22;41041;43.162;20.538;2022-07-24T07:46:24;691.20;1715.20
55151;DHT22;41041;43.162;20.538;2022-07-24T07:48:51;691.50;1689.60
55151;DHT22;41041;43.162;20.538;2022-07-24T07:51:16;691.30;1689.60
55151;DHT22;41041;43.162;20.538;2022-07-24T07:53:42;691.50;1664.00
55151;DHT22;41041;43.162;20.538;2022-07-24T07:56:08;691.70;1664.00
55151;DHT22;41041;43.162;20.538;2022-07-24T07:58:34;691.80;1638.40
55151;DHT22;41041;43.162;20.538;2022-07-24T08:01:00;691.70;1689.60
55151;DHT22;41041;43.162;20.538;2022-07-24T08:03:25;691.80;1638.40
55151;DHT22;41041;43.162;20.538;2022-07-24T08:05:51;692.10;1638.40
55151;DHT22;41041;43.162;20.538;2022-07-24T08:08:17;692.00;1638.40
55151;DHT22;41041;43.162;20.538;2022-07-24T08:10:42;692.10;1664.00
55151;DHT22;41041;43.162;20.538;2022-07-24T08:13:08;692.10;1612.80
55151;DHT22;41041;43.162;20.538;2022-07-24T08:15:33;716.90;1638.40
55151;DHT22;41041;43.162;20.538;2022-07-24T08:17:59;717.00;1612.80
55151;DHT22;41041;43.162;20.538;2022-07-24T08:20:25;717.00;1587.20
55151;DHT22;41041;43.162;20.538;2022-07-24T08:22:51;717.10;1587.20
55151;DHT22;41041;43.162;20.538;2022-07-24T08:25:17;717.20;1536.00
55151;DHT22;41041;43.162;20.538;2022-07-24T08:27:43;717.30;1587.20
55151;DHT22;41041;43.162;20.538;2022-07-24T08:32:42;717.50;1561.60
55151;DHT22;41041;43.162;20.538;2022-07-24T08:35:09;717.60;1536.00
55151;DHT22;41041;43.162;20.538;2022-07-24T08:37:39;717.70;1561.60
55151;DHT22;41041;43.162;20.538;2022-07-24T08:40:05;742.40;1561.60
55151;DHT22;41041;43.162;20.538;2022-07-24T08:42:31;742.50;1561.60
55151;DHT22;41041;43.162;20.538;2022-07-24T08:44:56;742.50;1536.00
55151;DHT22;41041;43.162;20.538;2022-07-24T08:47:22;742.50;1536.00
55151;DHT22;41041;43.162;20.538;2022-07-24T08:49:51;742.60;1536.00
55151;DHT22;41041;43.162;20.538;2022-07-24T08:52:18;742.70;1510.40
55151;DHT22;41041;43.162;20.538;2022-07-24T08:54:46;742.80;1510.40
55151;DHT22;41041;43.162;20.538;2022-07-24T08:57:12;742.80;1536.00
55151;DHT22;41041;43.162;20.538;2022-07-24T08:59:37;742.90;1484.80
55151;DHT22;41041;43.162;20.538;2022-07-24T09:02:03;743.00;1484.80
55151;DHT22;41041;43.162;20.538;2022-07-24T09:06:57;743.10;1484.80
55151;DHT22;41041;43.162;20.538;2022-07-24T09:09:24;743.20;1510.40
55151;DHT22;41041;43.162;20.538;2022-07-24T09:14:43;743.20;1536.00
55151;DHT22;41041;43.162;20.538;2022-07-24T09:17:13;743.30;1484.80
55151;DHT22;41041;43.162;20.538;2022-07-24T09:19:49;768.00;1484.80
55151;DHT22;41041;43.162;20.538;2022-07-24T09:27:27;768.40;1510.40
55151;DHT22;41041;43.162;20.538;2022-07-24T09:29:53;768.50;1510.40
55151;DHT22;41041;43.162;20.538;2022-07-24T09:32:22;768.60;1484.80
55151;DHT22;41041;43.162;20.538;2022-07-24T09:37:35;768.70;1459.20
55151;DHT22;41041;43.162;20.538;2022-07-24T09:40:07;768.80;1459.20
55151;DHT22;41041;43.162;20.538;2022-07-24T09:42:33;768.80;1484.80
55151;DHT22;41041;43.162;20.538;2022-07-24T09:45:04;793.70;1484.80
55151;DHT22;41041;43.162;20.538;2022-07-24T09:47:31;793.70;1433.60
55151;DHT22;41041;43.162;20.538;2022-07-24T09:50:09;793.70;1433.60
55151;DHT22;41041;43.162;20.538;2022-07-24T09:52:36;793.90;1484.80
55151;DHT22;41041;43.162;20.538;2022-07-24T09:55:02;794.00;1459.20
55151;DHT22;41041;43.162;20.538;2022-07-24T09:57:28;794.30;1433.60
55151;DHT22;41041;43.162;20.538;2022-07-24T09:59:55;794.10;1408.00
55151;DHT22;41041;43.162;20.538;2022-07-24T10:02:22;794.20;1382.40
55151;DHT22;41041;43.162;20.538;2022-07-24T10:04:48;794.30;1408.00
55151;DHT22;41041;43.162;20.538;2022-07-24T10:07:16;794.40;1382.40
55151;DHT22;41041;43.162;20.538;2022-07-24T10:09:43;819.20;1382.40
55151;DHT22;41041;43.162;20.538;2022-07-24T10:14:56;819.20;1305.60
55151;DHT22;41041;43.162;20.538;2022-07-24T10:17:22;819.30;1280.00
55151;DHT22;41041;43.162;20.538;2022-07-24T10:19:51;819.30;1305.60
55151;DHT22;41041;43.162;20.538;2022-07-24T10:22:22;819.40;1280.00
55151;DHT22;41041;43.162;20.538;2022-07-24T10:27:23;819.50;1228.80
55151;DHT22;41041;43.162;20.538;2022-07-24T10:29:49;819.50;1254.40
55151;DHT22;41041;43.162;20.538;2022-07-24T10:32:16;819.50;1203.20
55151;DHT22;41041;43.162;20.538;2022-07-24T10:34:47;819.60;1228.80
55151;DHT22;41041;43.162;20.538;2022-07-24T10:42:16;819.70;1228.80
55151;DHT22;41041;43.162;20.538;2022-07-24T10:44:41;819.80;1228.80
55151;DHT22;41041;43.162;20.538;2022-07-24T10:47:10;819.80;1254.40
55151;DHT22;41041;43.162;20.538;2022-07-24T10:49:47;819.70;1228.80
55151;DHT22;41041;43.162;20.538;2022-07-24T10:57:47;820.00;1177.60
55151;DHT22;41041;43.162;20.538;2022-07-24T11:00:23;820.00;1177.60
55151;DHT22;41041;43.162;20.538;2022-07-24T11:03:05;820.10;1177.60
55151;DHT22;41041;43.162;20.538;2022-07-24T11:05:35;820.10;1203.20
55151;DHT22;41041;43.162;20.538;2022-07-24T11:18:42;845.00;1152.00
55151;DHT22;41041;43.162;20.538;2022-07-24T11:21:08;845.10;1228.80
55151;DHT22;41041;43.162;20.538;2022-07-24T11:23:34;845.10;1228.80
55151;DHT22;41041;43.162;20.538;2022-07-24T11:31:32;845.20;1254.40
55151;DHT22;41041;43.162;20.538;2022-07-24T11:33:57;845.20;1228.80
55151;DHT22;41041;43.162;20.538;2022-07-24T11:36:23;845.30;1203.20
55151;DHT22;41041;43.162;20.538;2022-07-24T11:38:50;845.30;1203.20
55151;DHT22;41041;43.162;20.538;2022-07-24T11:41:17;845.30;1203.20
55151;DHT22;41041;43.162;20.538;2022-07-24T11:43:52;845.30;1228.80
55151;DHT22;41041;43.162;20.538;2022-07-24T11:46:34;845.30;1228.80
55151;DHT22;41041;43.162;20.538;2022-07-24T11:49:03;845.30;1228.80
55151;DHT22;41041;43.162;20.538;2022-07-24T11:51:29;845.30;1203.20
55151;DHT22;41041;43.162;20.538;2022-07-24T11:53:55;845.30;1203.20
55151;DHT22;41041;43.162;20.538;2022-07-24T11:56:21;845.30;1228.80
55151;DHT22;41041;43.162;20.538;2022-07-24T11:58:47;845.20;1228.80
55151;DHT22;41041;43.162;20.538;2022-07-24T12:01:22;845.20;1254.40
55151;DHT22;41041;43.162;20.538;2022-07-24T12:03:51;845.10;1254.40
55151;DHT22;41041;43.162;20.538;2022-07-24T12:06:20;845.00;1254.40
55151;DHT22;41041;43.162;20.538;2022-07-24T12:08:46;844.80;1280.00
55151;DHT22;41041;43.162;20.538;2022-07-24T12:11:11;820.00;1228.80
55151;DHT22;41041;43.162;20.538;2022-07-24T12:13:44;819.80;1228.80
55151;DHT22;41041;43.162;20.538;2022-07-24T12:16:10;819.70;1254.40
55151;DHT22;41041;43.162;20.538;2022-07-24T12:18:35;819.70;1254.40
55151;DHT22;41041;43.162;20.538;2022-07-24T12:21:01;819.60;1280.00
55151;DHT22;41041;43.162;20.538;2022-07-24T12:23:28;819.50;1280.00
55151;DHT22;41041;43.162;20.538;2022-07-24T12:25:56;819.40;1280.00
55151;DHT22;41041;43.162;20.538;2022-07-24T12:28:23;819.20;1280.00
55151;DHT22;41041;43.162;20.538;2022-07-24T12:30:52;819.20;1305.60
55151;DHT22;41041;43.162;20.538;2022-07-24T12:33:22;794.50;1305.60
55151;DHT22;41041;43.162;20.538;2022-07-24T12:35:59;794.40;1305.60
55151;DHT22;41041;43.162;20.538;2022-07-24T12:38:29;794.40;1305.60
55151;DHT22;41041;43.162;20.538;2022-07-24T12:43:27;794.10;1356.80
55151;DHT22;41041;43.162;20.538;2022-07-24T12:46:07;794.10;1356.80
55151;DHT22;41041;43.162;20.538;2022-07-24T12:48:33;794.00;1356.80
55151;DHT22;41041;43.162;20.538;2022-07-24T12:53:27;793.80;1382.40
55151;DHT22;41041;43.162;20.538;2022-07-24T12:56:04;793.70;1382.40
55151;DHT22;41041;43.162;20.538;2022-07-24T12:58:31;793.60;1408.00
55151;DHT22;41041;43.162;20.538;2022-07-24T13:01:12;793.60;1408.00
55151;DHT22;41041;43.162;20.538;2022-07-24T13:03:37;793.60;1433.60
55151;DHT22;41041;43.162;20.538;2022-07-24T13:06:03;768.80;1408.00
55151;DHT22;41041;43.162;20.538;2022-07-24T13:08:28;768.80;1408.00
55151;DHT22;41041;43.162;20.538;2022-07-24T13:10:54;768.80;1433.60
55151;DHT22;41041;43.162;20.538;2022-07-24T13:13:22;768.80;1433.60
55151;DHT22;41041;43.162;20.538;2022-07-24T13:15:47;768.50;1459.20
55151;DHT22;41041;43.162;20.538;2022-07-24T13:18:13;768.50;1459.20
55151;DHT22;41041;43.162;20.538;2022-07-24T13:20:39;768.50;1484.80
55151;DHT22;41041;43.162;20.538;2022-07-24T13:23:05;768.40;1484.80
55151;DHT22;41041;43.162;20.538;2022-07-24T13:25:31;768.30;1484.80
55151;DHT22;41041;43.162;20.538;2022-07-24T13:27:57;768.40;1510.40
55151;DHT22;41041;43.162;20.538;2022-07-24T13:30:22;768.40;1484.80
55151;DHT22;41041;43.162;20.538;2022-07-24T13:32:48;768.50;1484.80
55151;DHT22;41041;43.162;20.538;2022-07-24T13:35:30;768.70;1459.20
55151;DHT22;41041;43.162;20.538;2022-07-24T13:37:55;768.70;1433.60
55151;DHT22;41041;43.162;20.538;2022-07-24T13:40:21;768.80;1433.60
55151;DHT22;41041;43.162;20.538;2022-07-24T13:42:46;768.80;1433.60
55151;DHT22;41041;43.162;20.538;2022-07-24T13:45:12;768.80;1433.60
55151;DHT22;41041;43.162;20.538;2022-07-24T13:47:38;768.70;1433.60
55151;DHT22;41041;43.162;20.538;2022-07-24T13:50:03;768.70;1433.60
55151;DHT22;41041;43.162;20.538;2022-07-24T13:52:29;768.70;1459.20
55151;DHT22;41041;43.162;20.538;2022-07-24T13:54:55;768.70;1459.20
55151;DHT22;41041;43.162;20.538;2022-07-24T13:57:20;768.80;1459.20
55151;DHT22;41041;43.162;20.538;2022-07-24T13:59:46;768.80;1459.20
55151;DHT22;41041;43.162;20.538;2022-07-24T14:02:11;768.80;1459.20
55151;DHT22;41041;43.162;20.538;2022-07-24T14:04:37;768.90;1459.20
55151;DHT22;41041;43.162;20.538;2022-07-24T14:07:03;768.90;1433.60
55151;DHT22;41041;43.162;20.538;2022-07-24T14:09:28;768.90;1459.20
55151;DHT22;41041;43.162;20.538;2022-07-24T14:12:04;793.60;1459.20
55151;DHT22;41041;43.162;20.538;2022-07-24T14:14:30;793.60;1484.80
55151;DHT22;41041;43.162;20.538;2022-07-24T14:16:55;793.60;1484.80
55151;DHT22;41041;43.162;20.538;2022-07-24T14:22:08;768.80;1433.60
55151;DHT22;41041;43.162;20.538;2022-07-24T14:24:34;768.60;1433.60
55151;DHT22;41041;43.162;20.538;2022-07-24T14:27:00;768.60;1433.60
55151;DHT22;41041;43.162;20.538;2022-07-24T14:29:25;768.50;1433.60
55151;DHT22;41041;43.162;20.538;2022-07-24T14:31:51;768.50;1433.60
55151;DHT22;41041;43.162;20.538;2022-07-24T14:34:16;768.50;1433.60
55151;DHT22;41041;43.162;20.538;2022-07-24T14:36:43;768.50;1433.60
55151;DHT22;41041;43.162;20.538;2022-07-24T14:39:09;768.40;1433.60
55151;DHT22;41041;43.162;20.538;2022-07-24T14:41:35;768.50;1459.20
55151;DHT22;41041;43.162;20.538;2022-07-24T14:44:00;768.40;1459.20
55151;DHT22;41041;43.162;20.538;2022-07-24T14:46:26;768.30;1459.20
55151;DHT22;41041;43.162;20.538;2022-07-24T14:48:51;768.30;1459.20
55151;DHT22;41041;43.162;20.538;2022-07-24T14:51:17;768.20;1484.80
55151;DHT22;41041;43.162;20.538;2022-07-24T14:53:43;768.20;1484.80
55151;DHT22;41041;43.162;20.538;2022-07-24T14:56:15;768.10;1484.80
55151;DHT22;41041;43.162;20.538;2022-07-24T14:58:41;768.10;1484.80
55151;DHT22;41041;43.162;20.538;2022-07-24T15:01:07;768.00;1484.80
55151;DHT22;41041;43.162;20.538;2022-07-24T15:03:32;743.30;1510.40
55151;DHT22;41041;43.162;20.538;2022-07-24T15:05:58;743.20;1510.40
55151;DHT22;41041;43.162;20.538;2022-07-24T15:10:53;742.90;1612.80
55151;DHT22;41041;43.162;20.538;2022-07-24T15:13:19;742.80;1638.40
55151;DHT22;41041;43.162;20.538;2022-07-24T15:15:45;742.80;1664.00
55151;DHT22;41041;43.162;20.538;2022-07-24T15:18:11;742.60;1664.00
55151;DHT22;41041;43.162;20.538;2022-07-24T15:20:36;742.50;1792.00
55151;DHT22;41041;43.162;20.538;2022-07-24T15:23:03;742.40;1894.40
55151;DHT22;41041;43.162;20.538;2022-07-24T15:25:29;717.60;1894.40
55151;DHT22;41041;43.162;20.538;2022-07-24T15:27:54;717.50;1894.40
55151;DHT22;41041;43.162;20.538;2022-07-24T15:30:20;717.40;1868.80
55151;DHT22;41041;43.162;20.538;2022-07-24T15:32:46;717.30;1920.00
55151;DHT22;41041;43.162;20.538;2022-07-24T15:35:11;717.40;1894.40
55151;DHT22;41041;43.162;20.538;2022-07-24T15:37:37;717.30;1894.40
55151;DHT22;41041;43.162;20.538;2022-07-24T15:40:02;717.10;1945.60
55151;DHT22;41041;43.162;20.538;2022-07-24T15:42:28;716.80;1996.80
55151;DHT22;41041;43.162;20.538;2022-07-24T15:44:55;716.80;1996.80
55151;DHT22;41041;43.162;20.538;2022-07-24T15:47:21;692.10;2048.00
55151;DHT22;41041;43.162;20.538;2022-07-24T15:49:46;692.10;2073.60
55151;DHT22;41041;43.162;20.538;2022-07-24T15:52:12;692.10;2124.80
55151;DHT22;41041;43.162;20.538;2022-07-24T15:54:37;692.10;2099.20
55151;DHT22;41041;43.162;20.538;2022-07-24T15:57:03;692.00;2176.00
55151;DHT22;41041;43.162;20.538;2022-07-24T15:59:29;691.90;2176.00
55151;DHT22;41041;43.162;20.538;2022-07-24T16:01:54;691.90;2201.60
55151;DHT22;41041;43.162;20.538;2022-07-24T16:04:20;691.70;2150.40
55151;DHT22;41041;43.162;20.538;2022-07-24T16:06:46;691.70;2201.60